Back to Top

Language: 

My Weather Underground Personal Weather Station Historical Data with Graphs...

Delerius Weather Station Historical Data
Daily Summary for February 23, 2017 Units:  English    Metric   Both
« Previous Day
Next Day »
Daily Weekly Monthly Yearly Custom
  High: Low: Average:
Temperature: 49.0 °F 38.9 °F 43.4 °F
Dew Point: 47.3 °F 35.2 °F 40.2 °F
Humidity: 97 % 78 % 89 %
Wind Speed: 33.0 mph 0.0 mph 14 mph
Wind Gust: 46.0 mph - -
Wind:- - WSW
Pressure: 29.69 in 28.84 in -
Precipitation: 0.19 in    
Historical Graphs
 
 
Tabular Data for February 23, 2017
Time Temperature Dew Point Pressure Wind Wind Speed Wind Gust Humidity Rainfall Rate (Hourly) solar Conditions
00:00 44.4 °F 42.5 °F 29.51 in SSW 1.0 mph 1.0 mph 93 % 0.05 in 0 W/m2
00:05 44.3 °F 42.7 °F 29.51 in Calm   2.0 mph 94 % 0.05 in 0 W/m2
00:15 44.2 °F 42.6 °F 29.50 in SSW 1.0 mph 1.0 mph 94 % 0.07 in 0 W/m2
00:20 44.3 °F 42.7 °F 29.50 in SSW 1.0 mph 1.0 mph 94 % 0.06 in 0 W/m2
00:25 44.3 °F 42.7 °F 29.49 in SSW 1.0 mph 2.0 mph 94 % 0.06 in 0 W/m2
00:30 44.3 °F 43.0 °F 29.49 in South 2.0 mph 2.0 mph 95 % 0.07 in 0 W/m2
00:35 44.3 °F 43.0 °F 29.48 in South 3.0 mph 3.0 mph 95 % 0.06 in 0 W/m2
00:45 44.2 °F 42.9 °F 29.48 in SSE 4.0 mph 6.0 mph 95 % 0.00 in 0 W/m2
00:50 44.2 °F 42.9 °F 29.47 in SE 3.0 mph 4.0 mph 95 % 0.00 in 0 W/m2
00:55 44.1 °F 42.8 °F 29.47 in SE 3.0 mph 4.0 mph 95 % 0.00 in 0 W/m2
01:05 44.1 °F 42.8 °F 29.46 in SE 2.0 mph 3.0 mph 95 % 0.04 in 0 W/m2
01:10 44.1 °F 42.8 °F 29.45 in SE 3.0 mph 6.0 mph 95 % 0.08 in 0 W/m2
01:20 44.0 °F 42.7 °F 29.44 in SSE 4.0 mph 6.0 mph 95 % 0.13 in 0 W/m2
01:25 44.0 °F 42.9 °F 29.44 in SE 4.0 mph 6.0 mph 96 % 0.11 in 0 W/m2
01:30 44.0 °F 42.9 °F 29.43 in SE 4.0 mph 5.0 mph 96 % 0.07 in 0 W/m2
01:35 43.9 °F 42.8 °F 29.43 in SE 4.0 mph 7.0 mph 96 % 0.06 in 0 W/m2
01:40 43.9 °F 42.8 °F 29.42 in SSE 5.0 mph 6.0 mph 96 % 0.06 in 0 W/m2
01:45 44.0 °F 42.9 °F 29.41 in ESE 5.0 mph 6.0 mph 96 % 0.05 in 0 W/m2
01:55 44.0 °F 42.9 °F 29.40 in ESE 5.0 mph 5.0 mph 96 % 0.05 in 0 W/m2
02:00 44.1 °F 43.0 °F 29.39 in SE 4.0 mph 4.0 mph 96 % 0.05 in 0 W/m2
02:05 44.1 °F 43.0 °F 29.38 in SE 3.0 mph 6.0 mph 96 % 0.05 in 0 W/m2
02:15 44.3 °F 43.2 °F 29.37 in East 3.0 mph 4.0 mph 96 % 0.00 in 0 W/m2
02:20 44.4 °F 43.3 °F 29.37 in ESE 2.0 mph 2.0 mph 96 % 0.00 in 0 W/m2
02:30 44.5 °F 43.4 °F 29.37 in ESE 2.0 mph 4.0 mph 96 % 0.00 in 0 W/m2
02:35 44.7 °F 43.9 °F 29.36 in South 3.0 mph 6.0 mph 97 % 0.00 in 0 W/m2
02:40 44.8 °F 44.0 °F 29.36 in SSW 3.0 mph 3.0 mph 97 % 0.00 in 0 W/m2
02:45 44.9 °F 44.1 °F 29.34 in SSW 2.0 mph 4.0 mph 97 % 0.00 in 0 W/m2
02:50 45.0 °F 44.2 °F 29.34 in SW 1.0 mph 1.0 mph 97 % 0.00 in 0 W/m2
03:00 45.2 °F 44.4 °F 29.33 in SW 4.0 mph 4.0 mph 97 % 0.00 in 0 W/m2
03:10 45.5 °F 44.7 °F 29.32 in SSW 5.0 mph 6.0 mph 97 % 0.00 in 0 W/m2
03:15 45.7 °F 44.9 °F 29.31 in SSW 4.0 mph 6.0 mph 97 % 0.00 in 0 W/m2
03:20 45.8 °F 45.0 °F 29.30 in SSW 3.0 mph 3.0 mph 97 % 0.00 in 0 W/m2
03:25 45.9 °F 45.1 °F 29.30 in SSW 1.0 mph 4.0 mph 97 % 0.00 in 0 W/m2
03:35 46.1 °F 45.3 °F 29.29 in SSW 2.0 mph 4.0 mph 97 % 0.00 in 0 W/m2
03:40 46.3 °F 45.5 °F 29.29 in South 3.0 mph 6.0 mph 97 % 0.00 in 0 W/m2
03:45 46.6 °F 45.8 °F 29.28 in South 3.0 mph 6.0 mph 97 % 0.00 in 0 W/m2
03:50 46.8 °F 46.0 °F 29.27 in South 3.0 mph 3.0 mph 97 % 0.00 in 0 W/m2
03:55 47.1 °F 46.3 °F 29.26 in SSW 3.0 mph 4.0 mph 97 % 0.00 in 0 W/m2
04:05 47.5 °F 46.7 °F 29.25 in SSE 3.0 mph 5.0 mph 97 % 0.00 in 0 W/m2
04:15 47.9 °F 47.1 °F 29.25 in SSE 5.0 mph 8.0 mph 97 % 0.00 in 0 W/m2
04:20 48.1 °F 47.0 °F 29.24 in SW 6.0 mph 10.0 mph 96 % 0.00 in 0 W/m2
04:25 48.3 °F 47.2 °F 29.23 in SW 7.0 mph 10.0 mph 96 % 0.00 in 0 W/m2
04:30 48.4 °F 47.3 °F 29.22 in SSW 8.0 mph 10.0 mph 96 % 0.00 in 0 W/m2
04:35 48.5 °F 47.1 °F 29.22 in SW 7.0 mph 14.0 mph 95 % 0.00 in 0 W/m2
04:45 48.7 °F 47.1 °F 29.20 in SSW 8.0 mph 11.0 mph 94 % 0.00 in 0 W/m2
04:50 48.7 °F 47.1 °F 29.20 in SW 7.0 mph 15.0 mph 94 % 0.00 in 0 W/m2
04:55 48.8 °F 46.9 °F 29.19 in SSW 9.0 mph 15.0 mph 93 % 0.00 in 0 W/m2
05:00 48.9 °F 47.0 °F 29.19 in SSW 10.0 mph 11.0 mph 93 % 0.00 in 0 W/m2
05:05 49.0 °F 46.8 °F 29.18 in SSW 10.0 mph 11.0 mph 92 % 0.00 in 0 W/m2
05:15 49.0 °F 46.8 °F 29.16 in SW 11.0 mph 11.0 mph 92 % 0.00 in 0 W/m2
05:20 49.0 °F 46.8 °F 29.16 in SW 11.0 mph 11.0 mph 92 % 0.00 in 0 W/m2
05:30 48.9 °F 46.7 °F 29.15 in WSW 10.0 mph 10.0 mph 92 % 0.00 in 0 W/m2
05:35 48.9 °F 46.4 °F 29.14 in SW 12.0 mph 12.0 mph 91 % 0.00 in 0 W/m2
05:40 49.0 °F 46.5 °F 29.13 in SSW 13.0 mph 13.0 mph 91 % 0.00 in 0 W/m2
05:50 49.0 °F 46.2 °F 29.12 in SW 12.0 mph 12.0 mph 90 % 0.00 in 0 W/m2
05:55 49.0 °F 46.2 °F 29.11 in SSW 12.0 mph 12.0 mph 90 % 0.00 in 0 W/m2
06:00 48.9 °F 46.1 °F 29.10 in SSW 12.0 mph 12.0 mph 90 % 0.00 in 0 W/m2
06:05 48.9 °F 46.1 °F 29.09 in SW 14.0 mph 14.0 mph 90 % 0.00 in 0 W/m2
06:10 48.9 °F 46.1 °F 29.09 in SSW 16.0 mph 16.0 mph 90 % 0.00 in 0 W/m2
06:15 48.9 °F 46.1 °F 29.08 in SW 16.0 mph 16.0 mph 90 % 0.00 in 0 W/m2
06:25 48.8 °F 46.0 °F 29.06 in SSW 16.0 mph 18.0 mph 90 % 0.00 in 0 W/m2
06:30 48.6 °F 46.1 °F 29.05 in SW 15.0 mph 23.0 mph 91 % 0.00 in 0 W/m2
06:35 48.5 °F 46.0 °F 29.05 in South 15.0 mph 23.0 mph 91 % 0.00 in 0 W/m2
06:45 48.3 °F 46.1 °F 29.04 in SW 15.0 mph 19.0 mph 92 % 0.00 in 0 W/m2
06:50 48.2 °F 46.0 °F 29.03 in SSW 14.0 mph 14.0 mph 92 % 0.13 in 0 W/m2
07:00 48.0 °F 46.1 °F 29.03 in SSW 14.0 mph 14.0 mph 93 % 0.09 in 0 W/m2
07:05 48.0 °F 45.8 °F 29.02 in SW 17.0 mph 17.0 mph 92 % 0.10 in 0 W/m2
07:10 48.0 °F 45.5 °F 29.01 in SW 18.0 mph 18.0 mph 91 % 0.08 in 0 W/m2
07:15 48.2 °F 45.1 °F 29.01 in WSW 19.0 mph 19.0 mph 89 % 0.05 in 0 W/m2
07:20 48.0 °F 44.6 °F 29.01 in SW 18.0 mph 20.0 mph 88 % 0.00 in 5 W/m2
07:30 47.7 °F 43.7 °F 28.99 in SW 15.0 mph 15.0 mph 86 % 0.00 in 9 W/m2
07:35 47.7 °F 43.4 °F 28.99 in West 17.0 mph 17.0 mph 85 % 0.00 in 9 W/m2
07:40 47.6 °F 43.0 °F 28.98 in WSW 19.0 mph 23.0 mph 84 % 0.00 in 11 W/m2
07:45 47.7 °F 42.5 °F 28.98 in SW 19.0 mph 23.0 mph 82 % 0.00 in 9 W/m2
07:55 47.3 °F 40.8 °F 28.98 in WSW 24.0 mph 24.0 mph 78 % 0.00 in 14 W/m2
08:05 46.7 °F 40.2 °F 28.97 in West 23.0 mph 31.0 mph 78 % 0.00 in 19 W/m2
08:10 46.4 °F 40.2 °F 28.97 in WSW 22.0 mph 22.0 mph 79 % 0.00 in 47 W/m2
08:15 46.3 °F 41.1 °F 28.97 in WSW 21.0 mph 22.0 mph 82 % 0.00 in 176 W/m2
08:20 46.1 °F 41.2 °F 28.97 in WSW 21.0 mph 21.0 mph 83 % 0.00 in 60 W/m2
08:25 45.7 °F 41.4 °F 28.97 in West 19.0 mph 28.0 mph 85 % 0.00 in 53 W/m2
08:30 45.3 °F 41.4 °F 28.96 in WSW 15.0 mph 24.0 mph 86 % 0.00 in 67 W/m2
08:40 44.9 °F 41.0 °F 28.96 in WSW 17.0 mph 29.0 mph 86 % 0.00 in 74 W/m2
08:45 44.8 °F 40.9 °F 28.95 in WSW 17.0 mph 29.0 mph 86 % 0.00 in 79 W/m2
08:50 44.6 °F 41.0 °F 28.95 in SSW 16.0 mph 23.0 mph 87 % 0.00 in 76 W/m2
08:55 44.4 °F 40.8 °F 28.94 in WSW 16.0 mph 23.0 mph 87 % 0.00 in 62 W/m2
09:00 44.3 °F 40.4 °F 28.93 in SW 18.0 mph 21.0 mph 86 % 0.00 in 51 W/m2
09:10 43.9 °F 40.3 °F 28.92 in WSW 18.0 mph 18.0 mph 87 % 0.00 in 93 W/m2
09:15 43.8 °F 40.5 °F 28.91 in SW 17.0 mph 18.0 mph 88 % 0.00 in 128 W/m2
09:25 43.7 °F 40.7 °F 28.90 in SW 12.0 mph 14.0 mph 89 % 0.00 in 79 W/m2
09:30 43.6 °F 40.6 °F 28.89 in SW 13.0 mph 13.0 mph 89 % 0.00 in 46 W/m2
09:35 43.5 °F 40.5 °F 28.89 in SW 14.0 mph 14.0 mph 89 % 0.00 in 49 W/m2
09:45 43.1 °F 39.8 °F 28.89 in SW 21.0 mph 30.0 mph 88 % 0.06 in 26 W/m2
09:50 42.7 °F 39.4 °F 28.89 in WSW 24.0 mph 24.0 mph 88 % 0.06 in 158 W/m2
09:55 42.3 °F 39.0 °F 28.88 in WSW 25.0 mph 25.0 mph 88 % 0.05 in 114 W/m2
10:00 42.0 °F 39.0 °F 28.88 in WSW 23.0 mph 23.0 mph 89 % 0.00 in 171 W/m2
10:05 41.9 °F 38.9 °F 28.87 in SW 19.0 mph 23.0 mph 89 % 0.00 in 185 W/m2
10:10 41.9 °F 39.2 °F 28.87 in WSW 16.0 mph 16.0 mph 90 % 0.00 in 199 W/m2
10:20 41.6 °F 38.9 °F 28.86 in West 22.0 mph 22.0 mph 90 % 0.04 in 320 W/m2
10:25 41.7 °F 39.0 °F 28.85 in WNW 21.0 mph 22.0 mph 90 % 0.04 in 269 W/m2
10:30 41.7 °F 39.3 °F 28.85 in WSW 20.0 mph 20.0 mph 91 % 0.04 in 272 W/m2
10:35 41.7 °F 39.3 °F 28.84 in WSW 22.0 mph 30.0 mph 91 % 0.00 in 325 W/m2
10:45 42.3 °F 39.9 °F 28.85 in West 22.0 mph 29.0 mph 91 % 0.00 in 251 W/m2
10:50 42.5 °F 40.1 °F 28.84 in SW 23.0 mph 24.0 mph 91 % 0.00 in 526 W/m2
11:00 43.2 °F 40.8 °F 28.85 in West 25.0 mph 26.0 mph 91 % 0.00 in 487 W/m2
11:05 43.4 °F 40.9 °F 28.85 in WNW 25.0 mph 26.0 mph 91 % 0.00 in 209 W/m2
11:10 43.4 °F 40.7 °F 28.85 in West 24.0 mph 24.0 mph 90 % 0.00 in 163 W/m2
11:15 43.4 °F 40.9 °F 28.85 in West 22.0 mph 24.0 mph 91 % 0.00 in 128 W/m2
11:25 43.6 °F 41.1 °F 28.86 in West 21.0 mph 23.0 mph 91 % 0.00 in 105 W/m2
11:30 43.8 °F 41.6 °F 28.87 in West 20.0 mph 20.0 mph 92 % 0.00 in 250 W/m2
11:35 44.4 °F 41.9 °F 28.88 in West 21.0 mph 24.0 mph 91 % 0.00 in 309 W/m2
11:40 45.0 °F 42.2 °F 28.88 in West 24.0 mph 24.0 mph 90 % 0.00 in 371 W/m2
11:45 45.4 °F 42.1 °F 28.89 in West 23.0 mph 31.0 mph 88 % 0.00 in 274 W/m2
11:50 45.8 °F 42.2 °F 28.90 in WNW 27.0 mph 30.0 mph 87 % 0.00 in 366 W/m2
12:00 46.9 °F 42.9 °F 28.92 in NW 25.0 mph 25.0 mph 86 % 0.00 in 652 W/m2
12:05 47.3 °F 43.0 °F 28.92 in WNW 25.0 mph 25.0 mph 85 % 0.00 in 605 W/m2
12:10 47.3 °F 42.4 °F 28.93 in WNW 24.0 mph 24.0 mph 83 % 0.00 in 169 W/m2
12:15 47.0 °F 42.4 °F 28.94 in West 23.0 mph 30.0 mph 84 % 0.00 in 137 W/m2
12:20 46.4 °F 42.1 °F 28.95 in WNW 24.0 mph 26.0 mph 85 % 0.00 in 172 W/m2
12:30 44.2 °F 40.0 °F 28.97 in WNW 29.0 mph 29.0 mph 85 % 0.00 in 121 W/m2
12:35 43.4 °F 39.5 °F 28.98 in NW 29.0 mph 29.0 mph 86 % 0.00 in 148 W/m2
12:45 42.8 °F 38.9 °F 28.98 in WNW 31.0 mph 36.0 mph 86 % 0.00 in 209 W/m2
12:50 42.9 °F 39.0 °F 28.99 in NW 29.0 mph 29.0 mph 86 % 0.00 in 158 W/m2
12:55 42.8 °F 38.9 °F 29.00 in WNW 27.0 mph 29.0 mph 86 % 0.00 in 373 W/m2
13:05 43.5 °F 38.7 °F 29.00 in West 28.0 mph 28.0 mph 83 % 0.00 in 213 W/m2
13:10 43.5 °F 38.7 °F 29.01 in NW 28.0 mph 28.0 mph 83 % 0.00 in 155 W/m2
13:15 43.3 °F 38.2 °F 29.01 in WNW 26.0 mph 28.0 mph 82 % 0.00 in 137 W/m2
13:20 43.0 °F 37.9 °F 29.01 in West 26.0 mph 26.0 mph 82 % 0.00 in 120 W/m2
13:25 42.8 °F 37.7 °F 29.02 in WSW 28.0 mph 28.0 mph 82 % 0.00 in 118 W/m2
13:30 42.5 °F 37.4 °F 29.02 in West 30.0 mph 33.0 mph 82 % 0.00 in 113 W/m2
13:40 42.3 °F 37.5 °F 29.03 in NW 28.0 mph 32.0 mph 83 % 0.00 in 206 W/m2
13:45 42.5 °F 37.7 °F 29.03 in WNW 27.0 mph 32.0 mph 83 % 0.00 in 371 W/m2
13:50 42.6 °F 37.5 °F 29.03 in WNW 30.0 mph 39.0 mph 82 % 0.00 in 179 W/m2
13:55 42.5 °F 37.7 °F 29.04 in NW 33.0 mph 39.0 mph 83 % 0.00 in 292 W/m2
14:00 42.7 °F 37.9 °F 29.05 in WNW 33.0 mph 38.0 mph 83 % 0.00 in 223 W/m2
14:10 42.6 °F 37.8 °F 29.07 in WNW 28.0 mph 28.0 mph 83 % 0.00 in 230 W/m2
14:15 42.8 °F 38.0 °F 29.08 in NW 27.0 mph 28.0 mph 83 % 0.00 in 264 W/m2
14:25 43.3 °F 38.5 °F 29.10 in WNW 26.0 mph 27.0 mph 83 % 0.00 in 146 W/m2
14:30 43.0 °F 38.5 °F 29.11 in WNW 24.0 mph 28.0 mph 84 % 0.00 in 104 W/m2
14:35 42.5 °F 38.6 °F 29.13 in WNW 23.0 mph 28.0 mph 86 % 0.00 in 120 W/m2
14:45 42.0 °F 38.7 °F 29.15 in NNW 22.0 mph 22.0 mph 88 % 0.00 in 160 W/m2
14:50 42.0 °F 38.7 °F 29.15 in WNW 20.0 mph 22.0 mph 88 % 0.00 in 225 W/m2
14:55 42.1 °F 38.8 °F 29.16 in NW 21.0 mph 21.0 mph 88 % 0.00 in 190 W/m2
15:05 42.3 °F 38.7 °F 29.17 in WNW 22.0 mph 22.0 mph 87 % 0.00 in 165 W/m2
15:15 42.2 °F 38.3 °F 29.20 in WNW 21.0 mph 26.0 mph 86 % 0.00 in 156 W/m2
15:20 42.3 °F 38.4 °F 29.21 in NW 21.0 mph 21.0 mph 86 % 0.00 in 155 W/m2
15:25 42.4 °F 38.5 °F 29.22 in WNW 21.0 mph 21.0 mph 86 % 0.00 in 206 W/m2
15:30 42.6 °F 38.7 °F 29.23 in WNW 20.0 mph 26.0 mph 86 % 0.00 in 195 W/m2
15:40 42.7 °F 38.2 °F 29.26 in West 22.0 mph 46.0 mph 84 % 0.00 in 162 W/m2
15:45 42.7 °F 37.9 °F 29.27 in NNW 22.0 mph 46.0 mph 83 % 0.00 in 93 W/m2
15:50 42.6 °F 37.5 °F 29.27 in NNW 21.0 mph 46.0 mph 82 % 0.00 in 62 W/m2
15:55 42.5 °F 37.4 °F 29.28 in NNW 19.0 mph 46.0 mph 82 % 0.00 in 121 W/m2
16:00 42.5 °F 37.4 °F 29.29 in NW 19.0 mph 19.0 mph 82 % 0.00 in 88 W/m2
16:10 42.4 °F 37.0 °F 29.31 in WNW 20.0 mph 46.0 mph 81 % 0.00 in 60 W/m2
16:15 42.3 °F 37.2 °F 29.32 in NNW 19.0 mph 46.0 mph 82 % 0.00 in 58 W/m2
16:20 42.2 °F 37.1 °F 29.33 in WNW 18.0 mph 46.0 mph 82 % 0.00 in 62 W/m2
16:25 42.1 °F 37.0 °F 29.33 in NW 18.0 mph 46.0 mph 82 % 0.00 in 60 W/m2
16:35 42.2 °F 36.8 °F 29.36 in NW 19.0 mph 46.0 mph 81 % 0.00 in 35 W/m2
16:45 42.2 °F 36.8 °F 29.37 in WNW 17.0 mph 46.0 mph 81 % 0.00 in 28 W/m2
16:50 42.1 °F 36.7 °F 29.38 in NW 19.0 mph 19.0 mph 81 % 0.00 in 19 W/m2
16:55 42.0 °F 36.6 °F 29.39 in WNW 18.0 mph 46.0 mph 81 % 0.00 in 18 W/m2
17:00 42.0 °F 36.6 °F 29.39 in WNW 18.0 mph 46.0 mph 81 % 0.00 in 14 W/m2
17:05 42.0 °F 36.6 °F 29.40 in NW 17.0 mph 46.0 mph 81 % 0.00 in 11 W/m2
17:10 41.9 °F 36.5 °F 29.40 in NW 19.0 mph 19.0 mph 81 % 0.00 in 9 W/m2
17:20 41.7 °F 36.6 °F 29.42 in WNW 15.0 mph 15.0 mph 82 % 0.00 in 5 W/m2
17:25 41.6 °F 36.8 °F 29.43 in WNW 15.0 mph 46.0 mph 83 % 0.00 in 5 W/m2
17:30 41.6 °F 36.8 °F 29.43 in NW 15.0 mph 15.0 mph 83 % 0.00 in 0 W/m2
17:35 41.5 °F 37.0 °F 29.44 in WNW 15.0 mph 46.0 mph 84 % 0.00 in 0 W/m2
17:40 41.4 °F 36.9 °F 29.44 in WNW 15.0 mph 46.0 mph 84 % 0.00 in 0 W/m2
17:50 41.0 °F 36.8 °F 29.46 in WNW 15.0 mph 15.0 mph 85 % 0.00 in 0 W/m2
17:55 40.9 °F 37.0 °F 29.46 in West 14.0 mph 46.0 mph 86 % 0.00 in 0 W/m2
18:05 40.8 °F 37.2 °F 29.48 in WNW 14.0 mph 46.0 mph 87 % 0.00 in 0 W/m2
18:10 40.7 °F 37.1 °F 29.48 in WNW 12.0 mph 12.0 mph 87 % 0.00 in 0 W/m2
18:15 40.6 °F 37.0 °F 29.49 in WNW 12.0 mph 19.0 mph 87 % 0.00 in 0 W/m2
18:25 40.3 °F 36.7 °F 29.49 in WNW 13.0 mph 46.0 mph 87 % 0.00 in 0 W/m2
18:30 40.2 °F 36.6 °F 29.50 in WNW 11.0 mph 46.0 mph 87 % 0.00 in 0 W/m2
18:35 40.0 °F 36.4 °F 29.50 in West 11.0 mph 46.0 mph 87 % 0.00 in 0 W/m2
18:40 39.9 °F 36.3 °F 29.51 in NW 10.0 mph 10.0 mph 87 % 0.00 in 0 W/m2
18:45 39.8 °F 36.2 °F 29.51 in NW 11.0 mph 11.0 mph 87 % 0.00 in 0 W/m2
18:50 39.8 °F 36.2 °F 29.51 in WNW 11.0 mph 11.0 mph 87 % 0.00 in 0 W/m2
19:00 39.6 °F 36.0 °F 29.52 in WNW 9.0 mph 9.0 mph 87 % 0.00 in 0 W/m2
19:05 39.5 °F 36.0 °F 29.52 in WNW 9.0 mph 13.0 mph 87 % 0.00 in 0 W/m2
19:10 39.4 °F 36.1 °F 29.53 in WNW 8.0 mph 46.0 mph 88 % 0.00 in 0 W/m2
19:15 39.3 °F 36.0 °F 29.53 in NW 9.0 mph 46.0 mph 88 % 0.00 in 0 W/m2
19:25 39.2 °F 35.9 °F 29.54 in NW 10.0 mph 46.0 mph 88 % 0.00 in 0 W/m2
19:30 39.1 °F 35.8 °F 29.54 in WNW 9.0 mph 46.0 mph 88 % 0.00 in 0 W/m2
19:40 39.1 °F 35.8 °F 29.55 in WNW 10.0 mph 46.0 mph 88 % 0.00 in 0 W/m2
19:45 39.2 °F 35.9 °F 29.56 in NW 10.0 mph 46.0 mph 88 % 0.00 in 0 W/m2
19:50 39.2 °F 35.9 °F 29.57 in WNW 9.0 mph 9.0 mph 88 % 0.00 in 0 W/m2
19:55 39.4 °F 36.1 °F 29.57 in West 8.0 mph 46.0 mph 88 % 0.00 in 0 W/m2
20:05 39.6 °F 36.3 °F 29.57 in WNW 9.0 mph 46.0 mph 88 % 0.00 in 0 W/m2
20:10 39.6 °F 36.3 °F 29.58 in WNW 10.0 mph 46.0 mph 88 % 0.00 in 0 W/m2
20:15 39.7 °F 36.4 °F 29.58 in WNW 9.0 mph 46.0 mph 88 % 0.00 in 0 W/m2
20:20 39.7 °F 36.4 °F 29.59 in WNW 9.0 mph 9.0 mph 88 % 0.00 in 0 W/m2
20:25 39.8 °F 36.5 °F 29.59 in WNW 9.0 mph 10.0 mph 88 % 0.00 in 0 W/m2
20:30 39.8 °F 36.2 °F 29.60 in West 9.0 mph 9.0 mph 87 % 0.00 in 0 W/m2
20:40 39.8 °F 36.2 °F 29.61 in WNW 9.0 mph 9.0 mph 87 % 0.00 in 0 W/m2
20:45 39.8 °F 36.2 °F 29.61 in West 8.0 mph 46.0 mph 87 % 0.00 in 0 W/m2
20:50 39.8 °F 36.2 °F 29.61 in NW 7.0 mph 46.0 mph 87 % 0.00 in 0 W/m2
21:00 39.8 °F 36.2 °F 29.62 in West 6.0 mph 6.0 mph 87 % 0.00 in 0 W/m2
21:05 39.8 °F 36.2 °F 29.62 in West 5.0 mph 46.0 mph 87 % 0.00 in 0 W/m2
21:15 39.8 °F 36.2 °F 29.62 in WNW 5.0 mph 46.0 mph 87 % 0.00 in 0 W/m2
21:20 39.9 °F 36.3 °F 29.62 in WNW 8.0 mph 8.0 mph 87 % 0.00 in 0 W/m2
21:25 39.9 °F 36.3 °F 29.63 in WNW 7.0 mph 46.0 mph 87 % 0.00 in 0 W/m2
21:30 40.0 °F 36.2 °F 29.63 in WSW 8.0 mph 46.0 mph 86 % 0.00 in 0 W/m2
21:35 40.0 °F 36.2 °F 29.63 in WNW 8.0 mph 46.0 mph 86 % 0.00 in 0 W/m2
21:45 40.1 °F 36.2 °F 29.64 in WNW 8.0 mph 13.0 mph 86 % 0.00 in 0 W/m2
21:50 40.1 °F 36.0 °F 29.64 in WNW 8.0 mph 8.0 mph 85 % 0.00 in 0 W/m2
21:55 40.1 °F 36.0 °F 29.65 in West 8.0 mph 46.0 mph 85 % 0.00 in 0 W/m2
22:00 40.0 °F 36.2 °F 29.65 in WNW 7.0 mph 46.0 mph 86 % 0.00 in 0 W/m2
22:05 39.9 °F 36.1 °F 29.65 in WNW 7.0 mph 46.0 mph 86 % 0.00 in 0 W/m2
22:10 39.8 °F 36.0 °F 29.66 in West 7.0 mph 46.0 mph 86 % 0.00 in 0 W/m2
22:20 39.6 °F 35.5 °F 29.66 in West 10.0 mph 46.0 mph 85 % 0.00 in 0 W/m2
22:25 39.4 °F 35.3 °F 29.66 in WNW 10.0 mph 46.0 mph 85 % 0.00 in 0 W/m2
22:35 39.2 °F 35.4 °F 29.66 in NW 10.0 mph 46.0 mph 86 % 0.00 in 0 W/m2
22:40 39.0 °F 35.2 °F 29.66 in West 11.0 mph 46.0 mph 86 % 0.00 in 0 W/m2
22:45 38.9 °F 35.4 °F 29.67 in West 11.0 mph 46.0 mph 87 % 0.00 in 0 W/m2
22:55 38.9 °F 35.4 °F 29.67 in WNW 11.0 mph 46.0 mph 87 % 0.00 in 0 W/m2
23:00 38.9 °F 35.4 °F 29.67 in WNW 12.0 mph 12.0 mph 87 % 0.00 in 0 W/m2
23:05 38.9 °F 35.4 °F 29.67 in West 12.0 mph 46.0 mph 87 % 0.00 in 0 W/m2
23:10 38.9 °F 35.6 °F 29.66 in West 11.0 mph 11.0 mph 88 % 0.00 in 0 W/m2
23:15 38.9 °F 35.6 °F 29.67 in NW 10.0 mph 15.0 mph 88 % 0.00 in 0 W/m2
23:25 38.9 °F 35.6 °F 29.68 in WNW 11.0 mph 46.0 mph 88 % 0.00 in 0 W/m2
23:30 39.0 °F 35.7 °F 29.68 in West 11.0 mph 11.0 mph 88 % 0.00 in 0 W/m2
23:35 39.1 °F 35.8 °F 29.68 in West 12.0 mph 18.0 mph 88 % 0.00 in 0 W/m2
23:40 39.2 °F 35.9 °F 29.68 in NW 13.0 mph 13.0 mph 88 % 0.00 in 0 W/m2
23:45 39.3 °F 36.0 °F 29.69 in NW 11.0 mph 46.0 mph 88 % 0.00 in 0 W/m2
23:50 39.3 °F 36.0 °F 29.69 in West 10.0 mph 10.0 mph 88 % 0.00 in 0 W/m2
Delerius-Weather
Compliments of Weather Underground - 2 mb

Data updates at regular intervals.